Time;durP1;ratioP1;P1;durP2;ratioP2;P2;SDS_P1;SDS_P2;PMS_P1;PMS_P2;Temp;Humidity;BMP_temperature;BMP_pressure;BME280_temperature;BME280_humidity;BME280_pressure;Samples;Min_cycle;Max_cycle;Signal;HPM_P1;HPM_P2
2023/03/03 00:00:51;;;;;;;2.42;2.20;;;;;;;21.70;37.45;100692.44;21073236;28;20210;-67
2023/03/03 00:10:54;;;;;;;2.78;2.20;;;;;;;21.76;37.31;100713.56;21072815;28;20085;-68
2023/03/03 00:20:59;;;;;;;2.90;2.50;;;;;;;21.76;37.56;100718.28;21085114;28;20376;-67
2023/03/03 00:31:05;;;;;;;4.13;2.50;;;;;;;21.36;37.50;100684.13;21087963;28;20052;-67
2023/03/03 00:41:23;;;;;;;44.97;5.90;;;;;;;21.77;37.54;100765.38;21087813;28;20215;-65
2023/03/03 00:51:28;;;;;;;21.42;3.33;;;;;;;21.82;37.76;100762.53;21087535;28;20040;-65
2023/03/03 01:01:30;;;;;;;3.67;2.30;;;;;;;21.82;37.46;100768.09;21085195;28;20438;-65
2023/03/03 01:11:34;;;;;;;4.90;3.00;;;;;;;21.86;37.26;100785.06;21077551;28;20487;-64
2023/03/03 01:21:35;;;;;;;17.40;3.42;;;;;;;21.85;37.25;100810.41;21077705;28;20066;-65
2023/03/03 01:31:36;;;;;;;8.70;2.67;;;;;;;21.83;37.11;100831.03;21072945;28;20036;-67
2023/03/03 01:41:41;;;;;;;8.15;2.65;;;;;;;21.79;37.30;100835.53;21060065;28;20097;-66
2023/03/03 01:51:49;;;;;;;13.52;3.08;;;;;;;21.78;37.21;100856.16;21078396;28;20048;-65
2023/03/03 02:01:51;;;;;;;11.45;2.50;;;;;;;21.72;37.13;100885.16;21080859;28;20120;-65
2023/03/03 02:11:58;;;;;;;6.35;2.85;;;;;;;21.58;37.20;100889.72;21017255;28;20568;-66
2023/03/03 02:22:04;;;;;;;4.93;2.60;;;;;;;21.80;37.24;100975.63;21014913;28;20105;-66
2023/03/03 02:32:05;;;;;;;7.55;2.47;;;;;;;21.77;37.24;100981.78;21078827;28;20097;-66
2023/03/03 02:42:19;;;;;;;4.18;2.00;;;;;;;21.68;37.26;100986.28;21004196;28;20055;-66
2023/03/03 02:52:20;;;;;;;5.32;2.42;;;;;;;21.79;37.01;101001.81;20993301;28;20066;-66
2023/03/03 03:02:22;;;;;;;4.60;2.03;;;;;;;21.71;37.16;100989.31;20993384;28;20098;-65
2023/03/03 03:12:23;;;;;;;9.70;2.50;;;;;;;21.71;37.30;101000.44;21013276;28;20048;-67
2023/03/03 03:22:24;;;;;;;4.43;2.38;;;;;;;21.80;37.34;101032.16;21074509;28;20052;-66
2023/03/03 03:32:26;;;;;;;5.65;2.67;;;;;;;21.65;37.53;101040.59;21066062;28;20460;-67
2023/03/03 03:42:27;;;;;;;5.90;2.40;;;;;;;21.83;37.62;101075.34;21073996;28;20078;-66
2023/03/03 03:52:28;;;;;;;5.20;2.20;;;;;;;21.81;37.86;101075.66;21082014;28;20407;-66
2023/03/03 04:02:30;;;;;;;3.38;2.58;;;;;;;21.80;37.88;101062.81;21089313;28;20447;-65
2023/03/03 04:12:37;;;;;;;3.72;2.25;;;;;;;21.82;37.67;101076.47;21089696;28;20048;-64
2023/03/03 04:22:38;;;;;;;6.30;2.50;;;;;;;21.80;37.52;101099.03;21090337;28;20044;-66
2023/03/03 04:32:40;;;;;;;5.82;2.40;;;;;;;21.81;37.84;101127.75;21076288;28;20086;-67
2023/03/03 04:42:41;;;;;;;2.58;2.00;;;;;;;21.80;37.85;101126.88;21069199;28;20089;-67
2023/03/03 04:52:42;;;;;;;6.10;2.28;;;;;;;21.76;37.87;101136.94;21085997;28;20036;-66
2023/03/03 05:02:46;;;;;;;2.67;2.25;;;;;;;21.71;37.51;101150.84;21082829;28;20051;-67
2023/03/03 05:12:50;;;;;;;4.78;2.30;;;;;;;21.71;37.68;101194.59;21082506;28;20036;-66
2023/03/03 05:22:56;;;;;;;3.38;2.20;;;;;;;21.69;37.32;101186.53;21083364;28;20478;-66
2023/03/03 05:32:58;;;;;;;4.32;2.50;;;;;;;21.64;37.22;101228.31;21081821;28;20073;-67
2023/03/03 05:42:59;;;;;;;3.88;2.40;;;;;;;21.55;37.34;101247.53;21080438;28;20047;-66
2023/03/03 05:53:04;;;;;;;2.40;2.13;;;;;;;21.52;37.40;101248.06;21079724;28;20044;-66
2023/03/03 06:03:05;;;;;;;3.75;2.10;;;;;;;21.48;37.65;101260.88;21079026;28;20102;-68
2023/03/03 06:13:06;;;;;;;2.60;2.40;;;;;;;21.42;37.70;101281.47;21076847;28;20093;-66
2023/03/03 06:23:09;;;;;;;3.13;2.40;;;;;;;21.43;37.83;101308.19;21077045;28;20051;-67
2023/03/03 06:33:10;;;;;;;2.90;2.20;;;;;;;21.01;37.27;101261.03;21060683;28;20089;-67
2023/03/03 06:43:12;;;;;;;2.92;2.40;;;;;;;21.18;37.36;101297.81;21073660;28;20548;-66
2023/03/03 06:53:16;;;;;;;3.67;2.20;;;;;;;21.39;37.10;101364.69;21074686;28;20491;-66
2023/03/03 07:03:26;;;;;;;3.22;2.88;;;;;;;21.22;37.46;101354.63;21074889;28;20059;-66
2023/03/03 07:13:28;;;;;;;3.47;2.47;;;;;;;21.30;37.41;101420.91;21073464;28;20101;-66
2023/03/03 07:23:46;;;;;;;3.08;2.78;;;;;;;21.23;37.46;101428.66;21074010;28;20445;-66
2023/03/03 07:33:50;;;;;;;2.70;2.50;;;;;;;21.23;37.27;101462.03;21076443;28;20044;-68
2023/03/03 07:44:11;;;;;;;3.33;2.83;;;;;;;21.11;37.42;101444.72;21088670;28;20407;-66
2023/03/03 07:54:28;;;;;;;3.90;2.72;;;;;;;21.19;37.22;101455.34;21088399;28;20553;-66
2023/03/03 08:04:51;;;;;;;3.60;2.50;;;;;;;21.04;37.44;101458.06;21088471;28;20036;-66
2023/03/03 08:14:55;;;;;;;2.50;2.30;;;;;;;21.15;37.08;101490.38;21083518;28;20048;-66
2023/03/03 08:24:56;;;;;;;3.03;2.60;;;;;;;21.12;37.29;101531.81;21085245;28;20056;-66
2023/03/03 08:34:58;;;;;;;3.33;2.35;;;;;;;21.08;37.04;101539.88;21086117;28;20044;-66
2023/03/03 08:44:59;;;;;;;2.65;2.45;;;;;;;21.06;37.09;101505.91;21087985;28;20442;-66
2023/03/03 08:55:01;;;;;;;2.60;2.40;;;;;;;21.06;36.98;101542.91;21086848;28;20052;-67
2023/03/03 09:05:03;;;;;;;2.38;2.17;;;;;;;21.04;36.73;101527.63;21086507;28;20437;-66
2023/03/03 09:15:24;;;;;;;2.72;2.33;;;;;;;21.01;37.17;101526.19;21084469;28;20036;-66
2023/03/03 09:25:35;;;;;;;2.63;2.42;;;;;;;21.13;36.52;101527.97;21084642;28;20048;-66
2023/03/03 09:35:39;;;;;;;2.50;2.30;;;;;;;21.13;36.51;101534.34;21083248;28;20040;-66
2023/03/03 09:45:52;;;;;;;2.50;2.28;;;;;;;21.11;36.63;101532.94;21082704;28;20487;-65
2023/03/03 09:55:58;;;;;;;2.22;2.03;;;;;;;21.15;36.49;101553.56;21081934;28;20040;-66
2023/03/03 10:06:26;;;;;;;2.05;1.85;;;;;;;21.18;36.06;101559.44;21080601;28;20529;-65
2023/03/03 10:17:04;;;;;;;2.65;1.98;;;;;;;21.26;36.15;101597.06;21080620;28;20047;-66
2023/03/03 10:27:24;;;;;;;2.05;1.85;;;;;;;21.26;36.45;101591.50;21079860;28;20475;-67
2023/03/03 10:37:45;;;;;;;1.65;1.55;;;;;;;21.26;36.05;101574.81;21078030;28;20089;-67
2023/03/03 10:47:58;;;;;;;2.17;1.70;;;;;;;21.31;36.05;101580.44;21077706;28;20040;-67
2023/03/03 10:58:28;;;;;;;1.85;1.73;;;;;;;21.28;36.38;101586.50;21078179;28;20048;-66
2023/03/03 11:08:46;;;;;;;2.45;1.98;;;;;;;21.31;36.06;101592.41;21076619;28;20074;-66
2023/03/03 11:19:20;;;;;;;1.63;1.52;;;;;;;21.32;36.41;101612.72;21077299;28;20101;-67
2023/03/03 11:29:40;;;;;;;2.10;1.58;;;;;;;21.31;35.98;101589.63;21076046;28;20039;-66
2023/03/03 11:39:43;;;;;;;1.48;1.38;;;;;;;21.36;36.18;101610.25;21076051;28;20044;-64
2023/03/03 11:50:02;;;;;;;1.95;1.75;;;;;;;21.32;35.88;101615.50;21075192;28;20044;-66
2023/03/03 12:00:11;;;;;;;1.63;1.40;;;;;;;21.33;35.78;101621.91;21075025;28;20036;-67
2023/03/03 12:10:51;;;;;;;1.75;1.65;;;;;;;21.32;35.92;101604.38;21075162;28;20093;-67
2023/03/03 12:21:04;;;;;;;1.92;1.70;;;;;;;21.36;35.72;101587.97;21087981;28;20525;-67
2023/03/03 12:31:27;;;;;;;1.52;1.42;;;;;;;21.38;35.74;101602.47;21088977;28;20479;-67
2023/03/03 12:41:54;;;;;;;1.65;1.40;;;;;;;21.31;36.05;101628.59;21086422;28;20078;-66
2023/03/03 12:52:25;;;;;;;1.73;1.33;;;;;;;21.30;35.91;101673.34;21085821;28;20032;-65
2023/03/03 13:02:45;;;;;;;1.75;1.55;;;;;;;21.36;35.75;101688.22;21086286;28;20044;-66
2023/03/03 13:13:20;;;;;;;1.52;1.20;;;;;;;21.31;35.76;101751.09;21084831;28;20040;-66
2023/03/03 13:23:37;;;;;;;1.30;1.00;;;;;;;21.34;35.90;101746.91;21082834;28;20391;-65
2023/03/03 13:33:47;;;;;;;1.70;1.42;;;;;;;21.35;35.77;101753.31;21080760;28;20032;-66
2023/03/03 13:43:57;;;;;;;1.52;1.42;;;;;;;21.31;35.70;101742.72;21083780;28;20113;-65
2023/03/03 13:54:39;;;;;;;1.40;1.30;;;;;;;21.33;35.55;101744.41;21082155;28;20105;-65
2023/03/03 14:05:01;;;;;;;1.15;1.05;;;;;;;21.30;35.52;101760.53;21076598;28;20048;-66
2023/03/03 14:15:20;;;;;;;1.30;1.20;;;;;;;21.16;35.44;101756.44;21080393;28;20119;-67
2023/03/03 14:25:24;;;;;;;1.15;1.05;;;;;;;21.26;35.53;101773.28;21078694;28;20039;-66
2023/03/03 14:35:31;;;;;;;1.13;0.88;;;;;;;21.23;35.34;101768.22;21077651;28;20039;-66
2023/03/03 14:45:37;;;;;;;1.13;1.02;;;;;;;21.19;35.59;101800.47;21077658;28;20086;-66
2023/03/03 14:55:41;;;;;;;1.10;1.05;;;;;;;21.13;35.56;101801.53;21077634;28;20044;-66
2023/03/03 15:05:51;;;;;;;1.60;1.08;;;;;;;21.09;35.63;101832.94;21075004;28;20028;-66
2023/03/03 15:15:58;;;;;;;1.25;1.08;;;;;;;21.11;35.84;101837.13;21074409;28;20044;-66
2023/03/03 15:26:11;;;;;;;1.90;1.40;;;;;;;21.09;35.68;101805.09;21075182;28;20061;-66
2023/03/03 15:36:40;;;;;;;1.10;1.00;;;;;;;21.05;36.15;101782.50;21075964;28;20375;-66
2023/03/03 15:47:11;;;;;;;1.43;1.03;;;;;;;21.05;35.75;101749.13;21078468;28;20484;-65
2023/03/03 15:57:31;;;;;;;1.63;1.52;;;;;;;21.02;36.23;101739.34;21089832;28;20097;-66
2023/03/03 16:08:02;;;;;;;0.98;0.88;;;;;;;21.06;36.12;101734.94;21090775;28;20407;-67
2023/03/03 16:18:25;;;;;;;1.17;1.00;;;;;;;21.04;36.26;101736.31;21073840;28;20043;-67
2023/03/03 16:28:53;;;;;;;2.45;0.90;;;;;;;21.02;36.08;101771.88;21089103;28;20036;-66
2023/03/03 16:39:29;;;;;;;2.08;1.17;;;;;;;21.01;35.93;101754.34;21088273;28;20051;-67
2023/03/03 16:50:08;;;;;;;1.25;1.00;;;;;;;21.00;36.03;101733.22;21087890;28;20044;-67
2023/03/03 17:00:13;;;;;;;1.70;1.13;;;;;;;20.88;36.13;101679.66;21052683;28;20053;-66
2023/03/03 17:10:29;;;;;;;0.77;0.77;;;;;;;21.00;36.04;101687.84;21085396;28;20475;-66
2023/03/03 17:20:59;;;;;;;1.08;0.98;;;;;;;20.99;35.94;101655.56;21085837;28;20047;-65
2023/03/03 17:31:11;;;;;;;0.95;0.90;;;;;;;20.92;36.06;101621.53;21084304;28;20077;-65
2023/03/03 17:41:45;;;;;;;1.25;0.93;;;;;;;20.91;36.35;101594.84;21083789;28;20101;-65
2023/03/03 17:52:06;;;;;;;2.30;0.88;;;;;;;20.92;36.13;101577.03;21081755;28;20044;-65
2023/03/03 18:02:41;;;;;;;1.58;0.80;;;;;;;20.89;36.31;101572.00;21080692;28;20044;-66
2023/03/03 18:13:14;;;;;;;1.02;0.93;;;;;;;20.90;35.79;101552.28;21078337;28;20055;-66
2023/03/03 18:23:42;;;;;;;1.35;0.95;;;;;;;20.95;35.50;101518.09;21025978;28;20479;-66
2023/03/03 18:34:06;;;;;;;2.17;0.70;;;;;;;21.00;35.64;101484.72;21037638;28;20101;-67
2023/03/03 18:44:28;;;;;;;1.30;0.90;;;;;;;21.12;35.57;101477.03;21076209;28;20036;-67
2023/03/03 18:54:32;;;;;;;3.25;0.85;;;;;;;21.20;35.21;101457.00;21075774;28;20039;-66
2023/03/03 19:04:36;;;;;;;4.22;1.25;;;;;;;21.24;35.60;101463.72;21076776;28;20568;-66
2023/03/03 19:14:47;;;;;;;7.60;1.83;;;;;;;21.27;35.56;101452.06;21042318;28;20548;-66
2023/03/03 19:25:24;;;;;;;5.57;1.42;;;;;;;21.27;36.02;101452.06;21075924;28;20556;-68
2023/03/03 19:35:43;;;;;;;3.80;1.85;;;;;;;21.37;35.57;101434.59;21029941;28;20082;-67
2023/03/03 19:45:57;;;;;;;;;;;;;;;21.41;35.96;101434.88;21073580;28;20168;-67
2023/03/03 19:56:24;;;;;;;6.07;2.53;;;;;;;21.36;35.84;101398.69;21072369;28;19916;-66
2023/03/03 20:06:56;;;;;;;6.85;2.20;;;;;;;21.36;36.11;101387.53;21070928;28;20097;-67
2023/03/03 20:17:19;;;;;;;5.70;2.13;;;;;;;21.40;35.95;101420.13;21072414;28;20044;-66
2023/03/03 20:27:41;;;;;;;5.35;2.17;;;;;;;21.35;36.00;101380.28;21072891;28;20043;-66
2023/03/03 20:38:01;;;;;;;3.80;1.88;;;;;;;21.41;36.19;101410.66;21084119;28;20555;-67
2023/03/03 20:48:08;;;;;;;4.50;1.58;;;;;;;21.44;35.91;101395.34;21087151;28;20048;-67
2023/03/03 20:58:31;;;;;;;6.32;2.30;;;;;;;21.40;35.93;101399.81;21086608;28;20437;-67
2023/03/03 21:08:53;;;;;;;4.38;1.60;;;;;;;21.38;35.73;101379.75;21086098;28;20572;-67
2023/03/03 21:19:09;;;;;;;4.93;1.60;;;;;;;21.20;35.76;101339.28;21085390;28;20074;-67
2023/03/03 21:29:25;;;;;;;4.93;1.20;;;;;;;21.30;35.70;101306.78;21084438;28;20090;-67
2023/03/03 21:39:29;;;;;;;2.75;1.35;;;;;;;21.31;35.96;101286.19;21083036;28;20543;-66
2023/03/03 21:49:31;;;;;;;2.13;1.35;;;;;;;21.31;35.77;101269.50;21081917;28;20043;-67
2023/03/03 21:59:35;;;;;;;2.85;1.50;;;;;;;20.84;35.92;101190.88;21082045;28;20391;-67
2023/03/03 22:09:37;;;;;;;3.00;1.40;;;;;;;21.30;35.68;101223.25;21080802;28;20113;-67
2023/03/03 22:19:39;;;;;;;1.83;1.00;;;;;;;21.26;35.80;101166.47;21078629;28;20097;-67
2023/03/03 22:29:40;;;;;;;2.45;1.15;;;;;;;20.80;35.70;101069.06;21079913;28;20511;-68
2023/03/03 22:39:41;;;;;;;1.70;1.20;;;;;;;21.19;35.43;101129.72;21079308;28;20074;-67
2023/03/03 22:49:43;;;;;;;1.35;1.00;;;;;;;21.17;35.30;101084.66;21078472;28;20036;-66
2023/03/03 22:59:44;;;;;;;2.67;1.33;;;;;;;21.11;35.61;101055.13;21077874;28;20044;-66
2023/03/03 23:09:45;;;;;;;2.50;0.88;;;;;;;21.09;35.72;101009.25;21077836;28;20121;-67
2023/03/03 23:19:54;;;;;;;2.15;1.10;;;;;;;21.08;35.50;100997.28;21075106;28;20040;-67
2023/03/03 23:29:55;;;;;;;3.92;1.40;;;;;;;21.07;35.67;100978.91;21075884;28;20110;-67
2023/03/03 23:39:57;;;;;;;2.22;1.00;;;;;;;21.06;35.52;100988.38;21075226;28;20117;-67
2023/03/03 23:49:58;;;;;;;2.40;1.10;;;;;;;21.05;35.20;101009.78;21075677;28;20409;-68
2023/03/03 23:59:59;;;;;;;1.02;0.80;;;;;;;20.51;35.57;100945.59;21075072;28;20066;-68
